sensor_id;sensor_type;location;lat;lon;timestamp;P1;durP1;ratioP1;P2;durP2;ratioP2
31002;SDS011;23051;-6.372;106.786;2022-07-29T00:01:09;85.80;;;40.08;;
31002;SDS011;23051;-6.372;106.786;2022-07-29T00:03:17;77.90;;;39.50;;
31002;SDS011;23051;-6.372;106.786;2022-07-29T00:05:21;90.47;;;39.92;;
31002;SDS011;23051;-6.372;106.786;2022-07-29T00:07:26;93.80;;;35.63;;
31002;SDS011;23051;-6.372;106.786;2022-07-29T00:09:32;97.18;;;40.03;;
31002;SDS011;23051;-6.372;106.786;2022-07-29T00:11:34;78.25;;;37.08;;
31002;SDS011;23051;-6.372;106.786;2022-07-29T00:13:40;102.20;;;38.33;;
31002;SDS011;23051;-6.372;106.786;2022-07-29T00:15:45;88.82;;;38.50;;
31002;SDS011;23051;-6.372;106.786;2022-07-29T00:17:46;70.28;;;37.30;;
31002;SDS011;23051;-6.372;106.786;2022-07-29T00:19:51;94.07;;;36.05;;
31002;SDS011;23051;-6.372;106.786;2022-07-29T00:21:55;101.47;;;40.92;;
31002;SDS011;23051;-6.372;106.786;2022-07-29T00:23:59;62.45;;;37.03;;
31002;SDS011;23051;-6.372;106.786;2022-07-29T00:26:05;77.18;;;38.83;;
31002;SDS011;23051;-6.372;106.786;2022-07-29T00:28:09;108.43;;;42.17;;
31002;SDS011;23051;-6.372;106.786;2022-07-29T00:30:10;72.45;;;35.85;;
31002;SDS011;23051;-6.372;106.786;2022-07-29T00:32:12;72.10;;;39.30;;
31002;SDS011;23051;-6.372;106.786;2022-07-29T00:34:14;57.47;;;30.33;;
31002;SDS011;23051;-6.372;106.786;2022-07-29T00:38:21;42.60;;;26.67;;
31002;SDS011;23051;-6.372;106.786;2022-07-29T00:40:25;56.97;;;26.77;;
31002;SDS011;23051;-6.372;106.786;2022-07-29T00:44:32;63.22;;;26.45;;
31002;SDS011;23051;-6.372;106.786;2022-07-29T00:46:37;51.60;;;25.35;;
31002;SDS011;23051;-6.372;106.786;2022-07-29T00:48:38;54.97;;;28.23;;
31002;SDS011;23051;-6.372;106.786;2022-07-29T00:50:44;42.75;;;19.60;;
31002;SDS011;23051;-6.372;106.786;2022-07-29T00:52:48;58.55;;;24.77;;
31002;SDS011;23051;-6.372;106.786;2022-07-29T00:54:53;35.90;;;22.27;;
31002;SDS011;23051;-6.372;106.786;2022-07-29T00:56:55;46.92;;;20.65;;
31002;SDS011;23051;-6.372;106.786;2022-07-29T00:59:01;51.45;;;23.15;;
31002;SDS011;23051;-6.372;106.786;2022-07-29T01:01:05;48.30;;;24.92;;
31002;SDS011;23051;-6.372;106.786;2022-07-29T01:03:11;51.97;;;22.67;;
31002;SDS011;23051;-6.372;106.786;2022-07-29T01:05:18;52.30;;;23.33;;
31002;SDS011;23051;-6.372;106.786;2022-07-29T01:07:20;64.28;;;26.60;;
31002;SDS011;23051;-6.372;106.786;2022-07-29T01:09:22;60.10;;;27.98;;
31002;SDS011;23051;-6.372;106.786;2022-07-29T01:11:26;39.05;;;24.75;;
31002;SDS011;23051;-6.372;106.786;2022-07-29T01:13:27;46.92;;;24.40;;
31002;SDS011;23051;-6.372;106.786;2022-07-29T01:15:30;52.03;;;26.08;;
31002;SDS011;23051;-6.372;106.786;2022-07-29T01:17:36;43.35;;;21.75;;
31002;SDS011;23051;-6.372;106.786;2022-07-29T01:21:59;39.22;;;20.45;;
31002;SDS011;23051;-6.372;106.786;2022-07-29T01:26:13;48.42;;;20.45;;
31002;SDS011;23051;-6.372;106.786;2022-07-29T01:30:25;38.00;;;20.27;;
31002;SDS011;23051;-6.372;106.786;2022-07-29T01:32:31;37.17;;;21.00;;
31002;SDS011;23051;-6.372;106.786;2022-07-29T01:38:46;31.25;;;18.15;;
31002;SDS011;23051;-6.372;106.786;2022-07-29T01:40:54;38.55;;;17.73;;
31002;SDS011;23051;-6.372;106.786;2022-07-29T01:43:00;25.60;;;14.43;;
31002;SDS011;23051;-6.372;106.786;2022-07-29T01:45:08;31.40;;;13.52;;
31002;SDS011;23051;-6.372;106.786;2022-07-29T01:47:13;31.27;;;12.90;;
31002;SDS011;23051;-6.372;106.786;2022-07-29T01:49:19;26.42;;;13.85;;
31002;SDS011;23051;-6.372;106.786;2022-07-29T01:51:24;43.78;;;17.75;;
31002;SDS011;23051;-6.372;106.786;2022-07-29T01:53:31;27.92;;;16.80;;
31002;SDS011;23051;-6.372;106.786;2022-07-29T01:55:35;19.67;;;13.25;;
31002;SDS011;23051;-6.372;106.786;2022-07-29T01:57:38;31.05;;;11.40;;
31002;SDS011;23051;-6.372;106.786;2022-07-29T02:01:43;32.15;;;15.73;;
31002;SDS011;23051;-6.372;106.786;2022-07-29T02:03:49;37.95;;;12.68;;
31002;SDS011;23051;-6.372;106.786;2022-07-29T02:05:52;25.60;;;11.93;;
31002;SDS011;23051;-6.372;106.786;2022-07-29T02:07:54;18.33;;;11.33;;
31002;SDS011;23051;-6.372;106.786;2022-07-29T02:09:57;26.65;;;16.58;;
31002;SDS011;23051;-6.372;106.786;2022-07-29T02:12:00;24.95;;;13.90;;
31002;SDS011;23051;-6.372;106.786;2022-07-29T02:14:05;36.00;;;14.00;;
31002;SDS011;23051;-6.372;106.786;2022-07-29T02:16:06;18.35;;;12.90;;
31002;SDS011;23051;-6.372;106.786;2022-07-29T02:18:14;25.88;;;11.05;;
31002;SDS011;23051;-6.372;106.786;2022-07-29T02:20:17;37.83;;;15.00;;
31002;SDS011;23051;-6.372;106.786;2022-07-29T02:22:18;32.55;;;13.07;;
31002;SDS011;23051;-6.372;106.786;2022-07-29T02:24:25;28.30;;;13.90;;
31002;SDS011;23051;-6.372;106.786;2022-07-29T02:26:27;28.08;;;13.38;;
31002;SDS011;23051;-6.372;106.786;2022-07-29T02:28:32;29.48;;;12.38;;
31002;SDS011;23051;-6.372;106.786;2022-07-29T02:30:39;15.90;;;12.83;;
31002;SDS011;23051;-6.372;106.786;2022-07-29T02:32:42;13.75;;;11.85;;
31002;SDS011;23051;-6.372;106.786;2022-07-29T02:34:44;33.72;;;10.73;;
31002;SDS011;23051;-6.372;106.786;2022-07-29T02:36:50;17.25;;;12.48;;
31002;SDS011;23051;-6.372;106.786;2022-07-29T02:38:52;24.23;;;13.93;;
31002;SDS011;23051;-6.372;106.786;2022-07-29T02:40:58;16.95;;;11.25;;
31002;SDS011;23051;-6.372;106.786;2022-07-29T02:43:02;21.33;;;12.52;;
31002;SDS011;23051;-6.372;106.786;2022-07-29T02:45:08;20.13;;;9.20;;
31002;SDS011;23051;-6.372;106.786;2022-07-29T02:47:16;16.30;;;10.45;;
31002;SDS011;23051;-6.372;106.786;2022-07-29T02:51:25;18.67;;;12.85;;
31002;SDS011;23051;-6.372;106.786;2022-07-29T02:57:41;31.33;;;13.10;;
31002;SDS011;23051;-6.372;106.786;2022-07-29T02:59:44;13.80;;;10.85;;
31002;SDS011;23051;-6.372;106.786;2022-07-29T03:01:46;18.45;;;11.93;;
31002;SDS011;23051;-6.372;106.786;2022-07-29T03:03:49;21.73;;;11.70;;
31002;SDS011;23051;-6.372;106.786;2022-07-29T03:05:53;12.10;;;9.20;;
31002;SDS011;23051;-6.372;106.786;2022-07-29T03:08:00;26.52;;;11.13;;
31002;SDS011;23051;-6.372;106.786;2022-07-29T03:10:03;28.95;;;12.18;;
31002;SDS011;23051;-6.372;106.786;2022-07-29T03:12:08;22.80;;;9.98;;
31002;SDS011;23051;-6.372;106.786;2022-07-29T03:14:12;23.92;;;10.00;;
31002;SDS011;23051;-6.372;106.786;2022-07-29T03:16:14;23.42;;;11.02;;
31002;SDS011;23051;-6.372;106.786;2022-07-29T03:18:16;13.50;;;9.27;;
31002;SDS011;23051;-6.372;106.786;2022-07-29T03:20:21;8.20;;;7.07;;
31002;SDS011;23051;-6.372;106.786;2022-07-29T03:22:27;15.98;;;10.85;;
31002;SDS011;23051;-6.372;106.786;2022-07-29T03:24:34;24.08;;;11.80;;
31002;SDS011;23051;-6.372;106.786;2022-07-29T03:26:36;15.75;;;9.15;;
31002;SDS011;23051;-6.372;106.786;2022-07-29T03:28:38;11.63;;;8.48;;
31002;SDS011;23051;-6.372;106.786;2022-07-29T03:30:39;16.00;;;10.25;;
31002;SDS011;23051;-6.372;106.786;2022-07-29T03:32:44;14.40;;;9.05;;
31002;SDS011;23051;-6.372;106.786;2022-07-29T03:34:50;14.63;;;5.55;;
31002;SDS011;23051;-6.372;106.786;2022-07-29T03:38:53;19.30;;;8.57;;
31002;SDS011;23051;-6.372;106.786;2022-07-29T03:40:56;18.17;;;9.57;;
31002;SDS011;23051;-6.372;106.786;2022-07-29T03:45:05;11.77;;;7.88;;
31002;SDS011;23051;-6.372;106.786;2022-07-29T03:47:09;12.07;;;7.50;;
31002;SDS011;23051;-6.372;106.786;2022-07-29T03:49:14;10.68;;;6.70;;
31002;SDS011;23051;-6.372;106.786;2022-07-29T03:51:16;10.60;;;7.53;;
31002;SDS011;23051;-6.372;106.786;2022-07-29T03:53:18;11.13;;;7.38;;
31002;SDS011;23051;-6.372;106.786;2022-07-29T03:55:19;15.15;;;9.38;;
31002;SDS011;23051;-6.372;106.786;2022-07-29T03:59:27;8.60;;;5.57;;
31002;SDS011;23051;-6.372;106.786;2022-07-29T04:03:32;24.25;;;9.02;;
31002;SDS011;23051;-6.372;106.786;2022-07-29T04:05:37;13.30;;;7.20;;
31002;SDS011;23051;-6.372;106.786;2022-07-29T04:09:42;8.07;;;5.90;;
31002;SDS011;23051;-6.372;106.786;2022-07-29T04:11:47;6.28;;;5.70;;
31002;SDS011;23051;-6.372;106.786;2022-07-29T04:13:51;17.80;;;8.25;;
31002;SDS011;23051;-6.372;106.786;2022-07-29T04:15:55;10.15;;;6.72;;
31002;SDS011;23051;-6.372;106.786;2022-07-29T04:17:59;13.48;;;8.48;;
31002;SDS011;23051;-6.372;106.786;2022-07-29T04:20:03;24.13;;;7.93;;
31002;SDS011;23051;-6.372;106.786;2022-07-29T04:22:05;13.13;;;8.10;;
31002;SDS011;23051;-6.372;106.786;2022-07-29T04:24:07;6.80;;;6.13;;
31002;SDS011;23051;-6.372;106.786;2022-07-29T04:26:09;12.47;;;7.67;;
31002;SDS011;23051;-6.372;106.786;2022-07-29T04:28:13;16.73;;;7.95;;
31002;SDS011;23051;-6.372;106.786;2022-07-29T04:30:17;15.43;;;7.80;;
31002;SDS011;23051;-6.372;106.786;2022-07-29T04:32:24;20.85;;;6.32;;
31002;SDS011;23051;-6.372;106.786;2022-07-29T04:34:25;10.20;;;5.25;;
31002;SDS011;23051;-6.372;106.786;2022-07-29T04:36:27;6.45;;;5.38;;
31002;SDS011;23051;-6.372;106.786;2022-07-29T04:38:31;10.93;;;6.78;;
31002;SDS011;23051;-6.372;106.786;2022-07-29T04:40:35;13.43;;;5.90;;
31002;SDS011;23051;-6.372;106.786;2022-07-29T04:42:39;7.70;;;5.68;;
31002;SDS011;23051;-6.372;106.786;2022-07-29T04:44:41;7.47;;;5.60;;
31002;SDS011;23051;-6.372;106.786;2022-07-29T04:46:43;4.25;;;3.55;;
31002;SDS011;23051;-6.372;106.786;2022-07-29T04:48:49;8.55;;;4.25;;
31002;SDS011;23051;-6.372;106.786;2022-07-29T04:50:51;4.70;;;3.92;;
31002;SDS011;23051;-6.372;106.786;2022-07-29T04:52:54;9.55;;;5.45;;
31002;SDS011;23051;-6.372;106.786;2022-07-29T04:55:01;6.32;;;5.07;;
31002;SDS011;23051;-6.372;106.786;2022-07-29T04:57:05;8.63;;;4.78;;
31002;SDS011;23051;-6.372;106.786;2022-07-29T04:59:07;8.63;;;6.47;;
31002;SDS011;23051;-6.372;106.786;2022-07-29T05:01:11;7.88;;;4.82;;
31002;SDS011;23051;-6.372;106.786;2022-07-29T05:03:12;11.60;;;5.47;;
31002;SDS011;23051;-6.372;106.786;2022-07-29T05:05:14;7.38;;;5.30;;
31002;SDS011;23051;-6.372;106.786;2022-07-29T05:07:16;8.27;;;5.18;;
31002;SDS011;23051;-6.372;106.786;2022-07-29T05:09:18;5.38;;;4.90;;
31002;SDS011;23051;-6.372;106.786;2022-07-29T05:11:19;5.97;;;5.10;;
31002;SDS011;23051;-6.372;106.786;2022-07-29T05:13:21;4.55;;;4.10;;
31002;SDS011;23051;-6.372;106.786;2022-07-29T05:15:23;5.72;;;4.57;;
31002;SDS011;23051;-6.372;106.786;2022-07-29T05:17:24;11.18;;;6.43;;
31002;SDS011;23051;-6.372;106.786;2022-07-29T05:19:26;4.47;;;4.07;;
31002;SDS011;23051;-6.372;106.786;2022-07-29T05:21:28;16.23;;;5.55;;
31002;SDS011;23051;-6.372;106.786;2022-07-29T05:23:32;18.95;;;6.78;;
31002;SDS011;23051;-6.372;106.786;2022-07-29T05:25:34;5.20;;;4.13;;
31002;SDS011;23051;-6.372;106.786;2022-07-29T05:27:37;4.22;;;3.70;;
31002;SDS011;23051;-6.372;106.786;2022-07-29T05:31:45;7.30;;;4.40;;
31002;SDS011;23051;-6.372;106.786;2022-07-29T05:33:49;4.63;;;4.22;;
31002;SDS011;23051;-6.372;106.786;2022-07-29T05:35:55;6.55;;;4.82;;
31002;SDS011;23051;-6.372;106.786;2022-07-29T05:38:00;5.57;;;3.15;;
31002;SDS011;23051;-6.372;106.786;2022-07-29T05:40:02;4.88;;;4.35;;
31002;SDS011;23051;-6.372;106.786;2022-07-29T05:42:07;7.07;;;5.70;;
31002;SDS011;23051;-6.372;106.786;2022-07-29T05:44:09;5.88;;;4.03;;
31002;SDS011;23051;-6.372;106.786;2022-07-29T05:48:15;3.88;;;3.47;;
31002;SDS011;23051;-6.372;106.786;2022-07-29T05:50:20;12.07;;;5.82;;
31002;SDS011;23051;-6.372;106.786;2022-07-29T05:52:27;6.30;;;5.10;;
31002;SDS011;23051;-6.372;106.786;2022-07-29T05:54:28;13.38;;;5.68;;
31002;SDS011;23051;-6.372;106.786;2022-07-29T05:56:32;5.30;;;4.50;;
31002;SDS011;23051;-6.372;106.786;2022-07-29T05:58:38;4.57;;;3.13;;
31002;SDS011;23051;-6.372;106.786;2022-07-29T06:00:42;8.13;;;5.38;;
31002;SDS011;23051;-6.372;106.786;2022-07-29T06:02:47;9.40;;;5.00;;
31002;SDS011;23051;-6.372;106.786;2022-07-29T06:04:49;10.80;;;5.03;;
31002;SDS011;23051;-6.372;106.786;2022-07-29T06:06:53;7.30;;;4.72;;
31002;SDS011;23051;-6.372;106.786;2022-07-29T06:08:55;6.28;;;3.55;;
31002;SDS011;23051;-6.372;106.786;2022-07-29T06:10:57;5.03;;;3.50;;
31002;SDS011;23051;-6.372;106.786;2022-07-29T06:13:01;4.07;;;2.63;;
31002;SDS011;23051;-6.372;106.786;2022-07-29T06:15:06;4.20;;;3.80;;
31002;SDS011;23051;-6.372;106.786;2022-07-29T06:17:10;7.28;;;4.40;;
31002;SDS011;23051;-6.372;106.786;2022-07-29T06:19:12;8.38;;;3.65;;
31002;SDS011;23051;-6.372;106.786;2022-07-29T06:21:16;6.57;;;3.30;;
31002;SDS011;23051;-6.372;106.786;2022-07-29T06:23:22;3.97;;;3.15;;
31002;SDS011;23051;-6.372;106.786;2022-07-29T06:25:28;5.57;;;4.57;;
31002;SDS011;23051;-6.372;106.786;2022-07-29T06:27:33;4.50;;;3.30;;
31002;SDS011;23051;-6.372;106.786;2022-07-29T06:29:34;6.72;;;5.00;;
31002;SDS011;23051;-6.372;106.786;2022-07-29T06:31:39;4.63;;;3.83;;
31002;SDS011;23051;-6.372;106.786;2022-07-29T06:33:42;8.93;;;2.78;;
31002;SDS011;23051;-6.372;106.786;2022-07-29T06:35:44;12.18;;;4.38;;
31002;SDS011;23051;-6.372;106.786;2022-07-29T06:37:47;4.72;;;4.10;;
31002;SDS011;23051;-6.372;106.786;2022-07-29T06:39:51;5.43;;;3.47;;
31002;SDS011;23051;-6.372;106.786;2022-07-29T06:42:14;8.02;;;3.75;;
31002;SDS011;23051;-6.372;106.786;2022-07-29T06:44:19;6.38;;;4.50;;
31002;SDS011;23051;-6.372;106.786;2022-07-29T06:46:21;4.25;;;3.13;;
31002;SDS011;23051;-6.372;106.786;2022-07-29T06:48:25;3.55;;;3.25;;
31002;SDS011;23051;-6.372;106.786;2022-07-29T06:50:31;2.83;;;2.63;;
31002;SDS011;23051;-6.372;106.786;2022-07-29T06:52:33;5.07;;;2.92;;
31002;SDS011;23051;-6.372;106.786;2022-07-29T06:54:37;3.95;;;3.65;;
31002;SDS011;23051;-6.372;106.786;2022-07-29T06:56:42;19.42;;;4.53;;
31002;SDS011;23051;-6.372;106.786;2022-07-29T06:58:44;3.38;;;3.00;;
31002;SDS011;23051;-6.372;106.786;2022-07-29T07:00:46;5.60;;;3.72;;
31002;SDS011;23051;-6.372;106.786;2022-07-29T07:02:48;6.25;;;3.50;;
31002;SDS011;23051;-6.372;106.786;2022-07-29T07:04:49;4.53;;;3.30;;
31002;SDS011;23051;-6.372;106.786;2022-07-29T07:06:54;10.23;;;3.40;;
31002;SDS011;23051;-6.372;106.786;2022-07-29T07:08:56;6.53;;;3.35;;
31002;SDS011;23051;-6.372;106.786;2022-07-29T07:10:57;7.00;;;2.95;;
31002;SDS011;23051;-6.372;106.786;2022-07-29T07:13:01;3.63;;;3.30;;
31002;SDS011;23051;-6.372;106.786;2022-07-29T07:15:06;4.53;;;3.70;;
31002;SDS011;23051;-6.372;106.786;2022-07-29T07:17:10;4.20;;;2.92;;
31002;SDS011;23051;-6.372;106.786;2022-07-29T07:19:12;9.63;;;3.70;;
31002;SDS011;23051;-6.372;106.786;2022-07-29T07:21:13;6.25;;;3.25;;
31002;SDS011;23051;-6.372;106.786;2022-07-29T07:23:15;4.32;;;3.17;;
31002;SDS011;23051;-6.372;106.786;2022-07-29T07:25:21;3.05;;;2.85;;
31002;SDS011;23051;-6.372;106.786;2022-07-29T07:27:28;4.85;;;3.42;;
31002;SDS011;23051;-6.372;106.786;2022-07-29T07:29:32;4.05;;;3.75;;
31002;SDS011;23051;-6.372;106.786;2022-07-29T07:31:33;6.57;;;4.40;;
31002;SDS011;23051;-6.372;106.786;2022-07-29T07:33:35;7.97;;;4.80;;
31002;SDS011;23051;-6.372;106.786;2022-07-29T07:35:36;5.00;;;3.58;;
31002;SDS011;23051;-6.372;106.786;2022-07-29T07:37:40;2.72;;;2.53;;
31002;SDS011;23051;-6.372;106.786;2022-07-29T07:39:44;6.03;;;3.55;;
31002;SDS011;23051;-6.372;106.786;2022-07-29T07:41:50;15.55;;;4.43;;
31002;SDS011;23051;-6.372;106.786;2022-07-29T07:43:52;4.10;;;3.25;;
31002;SDS011;23051;-6.372;106.786;2022-07-29T07:45:54;4.00;;;3.20;;
31002;SDS011;23051;-6.372;106.786;2022-07-29T07:47:55;5.53;;;3.05;;
31002;SDS011;23051;-6.372;106.786;2022-07-29T07:49:57;9.68;;;3.88;;
31002;SDS011;23051;-6.372;106.786;2022-07-29T07:51:58;4.15;;;2.88;;
31002;SDS011;23051;-6.372;106.786;2022-07-29T07:54:00;6.88;;;3.42;;
31002;SDS011;23051;-6.372;106.786;2022-07-29T07:56:02;8.10;;;3.67;;
31002;SDS011;23051;-6.372;106.786;2022-07-29T07:58:07;11.23;;;5.47;;
31002;SDS011;23051;-6.372;106.786;2022-07-29T08:00:12;4.82;;;3.80;;
31002;SDS011;23051;-6.372;106.786;2022-07-29T08:02:16;5.63;;;4.28;;
31002;SDS011;23051;-6.372;106.786;2022-07-29T08:04:20;3.80;;;3.50;;
31002;SDS011;23051;-6.372;106.786;2022-07-29T08:06:22;4.32;;;3.95;;
31002;SDS011;23051;-6.372;106.786;2022-07-29T08:08:26;7.60;;;5.63;;
31002;SDS011;23051;-6.372;106.786;2022-07-29T08:10:32;3.88;;;3.22;;
31002;SDS011;23051;-6.372;106.786;2022-07-29T08:12:36;4.20;;;3.50;;
31002;SDS011;23051;-6.372;106.786;2022-07-29T08:14:38;7.53;;;4.03;;
31002;SDS011;23051;-6.372;106.786;2022-07-29T08:16:40;2.85;;;2.58;;
31002;SDS011;23051;-6.372;106.786;2022-07-29T08:18:43;4.43;;;1.90;;
31002;SDS011;23051;-6.372;106.786;2022-07-29T08:20:47;8.57;;;3.25;;
31002;SDS011;23051;-6.372;106.786;2022-07-29T08:22:48;2.20;;;2.00;;
31002;SDS011;23051;-6.372;106.786;2022-07-29T08:24:53;7.13;;;4.35;;
31002;SDS011;23051;-6.372;106.786;2022-07-29T08:26:58;4.13;;;2.65;;
31002;SDS011;23051;-6.372;106.786;2022-07-29T08:28:59;3.85;;;2.95;;
31002;SDS011;23051;-6.372;106.786;2022-07-29T08:31:03;3.88;;;3.55;;
31002;SDS011;23051;-6.372;106.786;2022-07-29T08:33:09;3.15;;;2.92;;
31002;SDS011;23051;-6.372;106.786;2022-07-29T08:35:11;4.20;;;2.55;;
31002;SDS011;23051;-6.372;106.786;2022-07-29T08:37:13;8.75;;;4.30;;
31002;SDS011;23051;-6.372;106.786;2022-07-29T08:39:14;4.03;;;3.63;;
31002;SDS011;23051;-6.372;106.786;2022-07-29T08:41:18;5.15;;;4.63;;
31002;SDS011;23051;-6.372;106.786;2022-07-29T08:43:20;7.05;;;3.03;;
31002;SDS011;23051;-6.372;106.786;2022-07-29T08:45:24;9.23;;;4.30;;
31002;SDS011;23051;-6.372;106.786;2022-07-29T08:47:31;4.78;;;3.53;;
31002;SDS011;23051;-6.372;106.786;2022-07-29T08:49:34;6.43;;;5.13;;
31002;SDS011;23051;-6.372;106.786;2022-07-29T08:51:36;6.03;;;4.00;;
31002;SDS011;23051;-6.372;106.786;2022-07-29T08:53:43;8.98;;;4.65;;
31002;SDS011;23051;-6.372;106.786;2022-07-29T08:55:49;13.68;;;3.92;;
31002;SDS011;23051;-6.372;106.786;2022-07-29T08:57:51;4.93;;;3.22;;
31002;SDS011;23051;-6.372;106.786;2022-07-29T08:59:53;7.43;;;3.42;;
31002;SDS011;23051;-6.372;106.786;2022-07-29T09:01:56;12.07;;;5.28;;
31002;SDS011;23051;-6.372;106.786;2022-07-29T09:04:01;8.57;;;4.25;;
31002;SDS011;23051;-6.372;106.786;2022-07-29T09:06:03;5.20;;;4.65;;
31002;SDS011;23051;-6.372;106.786;2022-07-29T09:08:07;5.93;;;3.85;;
31002;SDS011;23051;-6.372;106.786;2022-07-29T09:10:09;8.77;;;4.53;;
31002;SDS011;23051;-6.372;106.786;2022-07-29T09:12:13;7.80;;;4.90;;
31002;SDS011;23051;-6.372;106.786;2022-07-29T09:14:15;7.70;;;4.47;;
31002;SDS011;23051;-6.372;106.786;2022-07-29T09:16:20;6.15;;;3.92;;
31002;SDS011;23051;-6.372;106.786;2022-07-29T09:20:28;7.32;;;4.28;;
31002;SDS011;23051;-6.372;106.786;2022-07-29T09:22:50;7.25;;;6.22;;
31002;SDS011;23051;-6.372;106.786;2022-07-29T09:24:55;5.03;;;4.38;;
31002;SDS011;23051;-6.372;106.786;2022-07-29T09:26:57;7.43;;;4.00;;
31002;SDS011;23051;-6.372;106.786;2022-07-29T09:28:59;4.60;;;3.75;;
31002;SDS011;23051;-6.372;106.786;2022-07-29T09:31:05;4.65;;;4.18;;
31002;SDS011;23051;-6.372;106.786;2022-07-29T09:33:08;6.05;;;5.47;;
31002;SDS011;23051;-6.372;106.786;2022-07-29T09:41:25;7.13;;;5.18;;
31002;SDS011;23051;-6.372;106.786;2022-07-29T09:43:32;13.13;;;4.63;;
31002;SDS011;23051;-6.372;106.786;2022-07-29T09:45:36;8.20;;;4.28;;
31002;SDS011;23051;-6.372;106.786;2022-07-29T09:47:44;6.20;;;4.75;;
31002;SDS011;23051;-6.372;106.786;2022-07-29T09:50:00;8.68;;;4.22;;
31002;SDS011;23051;-6.372;106.786;2022-07-29T09:52:07;12.25;;;5.85;;
31002;SDS011;23051;-6.372;106.786;2022-07-29T09:56:16;4.05;;;3.75;;
31002;SDS011;23051;-6.372;106.786;2022-07-29T10:00:21;10.35;;;4.15;;
31002;SDS011;23051;-6.372;106.786;2022-07-29T10:02:28;14.50;;;5.45;;
31002;SDS011;23051;-6.372;106.786;2022-07-29T10:06:34;3.70;;;3.40;;
31002;SDS011;23051;-6.372;106.786;2022-07-29T10:08:36;9.50;;;5.13;;
31002;SDS011;23051;-6.372;106.786;2022-07-29T10:10:42;6.57;;;5.22;;
31002;SDS011;23051;-6.372;106.786;2022-07-29T10:12:49;17.73;;;4.95;;
31002;SDS011;23051;-6.372;106.786;2022-07-29T10:14:53;8.18;;;4.53;;
31002;SDS011;23051;-6.372;106.786;2022-07-29T10:16:58;7.07;;;4.05;;
31002;SDS011;23051;-6.372;106.786;2022-07-29T10:19:02;4.53;;;4.15;;
31002;SDS011;23051;-6.372;106.786;2022-07-29T10:21:04;13.95;;;5.65;;
31002;SDS011;23051;-6.372;106.786;2022-07-29T10:23:06;6.07;;;4.63;;
31002;SDS011;23051;-6.372;106.786;2022-07-29T10:25:10;14.00;;;5.68;;
31002;SDS011;23051;-6.372;106.786;2022-07-29T10:27:11;6.85;;;5.57;;
31002;SDS011;23051;-6.372;106.786;2022-07-29T10:29:16;6.80;;;3.88;;
31002;SDS011;23051;-6.372;106.786;2022-07-29T10:31:26;8.00;;;4.80;;
31002;SDS011;23051;-6.372;106.786;2022-07-29T10:45:59;18.67;;;8.10;;
31002;SDS011;23051;-6.372;106.786;2022-07-29T10:48:07;5.70;;;4.80;;
31002;SDS011;23051;-6.372;106.786;2022-07-29T10:50:09;9.55;;;5.15;;
31002;SDS011;23051;-6.372;106.786;2022-07-29T10:52:11;5.97;;;5.43;;
31002;SDS011;23051;-6.372;106.786;2022-07-29T10:54:12;14.23;;;4.82;;
31002;SDS011;23051;-6.372;106.786;2022-07-29T10:56:30;8.57;;;4.88;;
31002;SDS011;23051;-6.372;106.786;2022-07-29T10:58:36;7.65;;;5.03;;
31002;SDS011;23051;-6.372;106.786;2022-07-29T11:00:38;6.55;;;4.38;;
31002;SDS011;23051;-6.372;106.786;2022-07-29T11:13:02;4.50;;;3.53;;
31002;SDS011;23051;-6.372;106.786;2022-07-29T11:15:05;6.93;;;4.95;;
31002;SDS011;23051;-6.372;106.786;2022-07-29T11:17:12;7.30;;;4.13;;
31002;SDS011;23051;-6.372;106.786;2022-07-29T11:21:41;7.30;;;5.45;;
31002;SDS011;23051;-6.372;106.786;2022-07-29T11:23:39;8.73;;;5.05;;
31002;SDS011;23051;-6.372;106.786;2022-07-29T11:25:43;6.07;;;4.30;;
31002;SDS011;23051;-6.372;106.786;2022-07-29T11:27:45;5.28;;;4.78;;
31002;SDS011;23051;-6.372;106.786;2022-07-29T11:31:50;5.10;;;3.92;;
31002;SDS011;23051;-6.372;106.786;2022-07-29T11:33:54;5.80;;;4.00;;
31002;SDS011;23051;-6.372;106.786;2022-07-29T11:40:08;10.10;;;4.43;;
31002;SDS011;23051;-6.372;106.786;2022-07-29T11:44:14;5.70;;;4.55;;
31002;SDS011;23051;-6.372;106.786;2022-07-29T11:46:18;4.03;;;3.70;;
31002;SDS011;23051;-6.372;106.786;2022-07-29T11:48:22;12.30;;;4.03;;
31002;SDS011;23051;-6.372;106.786;2022-07-29T11:50:30;13.80;;;6.30;;
31002;SDS011;23051;-6.372;106.786;2022-07-29T11:52:37;7.60;;;4.47;;
31002;SDS011;23051;-6.372;106.786;2022-07-29T11:54:45;5.82;;;4.82;;
31002;SDS011;23051;-6.372;106.786;2022-07-29T11:56:50;9.75;;;4.00;;
31002;SDS011;23051;-6.372;106.786;2022-07-29T11:59:03;9.88;;;5.47;;
31002;SDS011;23051;-6.372;106.786;2022-07-29T12:01:12;5.40;;;4.47;;
31002;SDS011;23051;-6.372;106.786;2022-07-29T12:03:24;11.68;;;4.30;;
31002;SDS011;23051;-6.372;106.786;2022-07-29T12:07:33;6.32;;;5.50;;
31002;SDS011;23051;-6.372;106.786;2022-07-29T12:09:35;6.97;;;3.95;;
31002;SDS011;23051;-6.372;106.786;2022-07-29T12:11:37;6.40;;;4.30;;
31002;SDS011;23051;-6.372;106.786;2022-07-29T12:13:41;14.43;;;4.22;;
31002;SDS011;23051;-6.372;106.786;2022-07-29T12:15:50;10.85;;;3.85;;
31002;SDS011;23051;-6.372;106.786;2022-07-29T12:17:57;2.25;;;2.05;;
31002;SDS011;23051;-6.372;106.786;2022-07-29T12:20:00;4.45;;;3.17;;
31002;SDS011;23051;-6.372;106.786;2022-07-29T12:24:05;6.03;;;3.58;;
31002;SDS011;23051;-6.372;106.786;2022-07-29T12:26:10;6.10;;;4.80;;
31002;SDS011;23051;-6.372;106.786;2022-07-29T12:28:12;9.85;;;5.28;;
31002;SDS011;23051;-6.372;106.786;2022-07-29T12:30:21;15.07;;;6.28;;
31002;SDS011;23051;-6.372;106.786;2022-07-29T12:32:30;4.28;;;3.45;;
31002;SDS011;23051;-6.372;106.786;2022-07-29T12:34:32;5.93;;;2.60;;
31002;SDS011;23051;-6.372;106.786;2022-07-29T12:36:34;7.60;;;3.35;;
31002;SDS011;23051;-6.372;106.786;2022-07-29T12:38:38;11.95;;;5.35;;
31002;SDS011;23051;-6.372;106.786;2022-07-29T12:40:44;4.93;;;4.38;;
31002;SDS011;23051;-6.372;106.786;2022-07-29T12:44:51;3.50;;;3.20;;
31002;SDS011;23051;-6.372;106.786;2022-07-29T12:48:59;6.38;;;4.40;;
31002;SDS011;23051;-6.372;106.786;2022-07-29T12:51:03;6.05;;;3.65;;
31002;SDS011;23051;-6.372;106.786;2022-07-29T12:53:11;6.22;;;4.88;;
31002;SDS011;23051;-6.372;106.786;2022-07-29T12:55:53;5.25;;;4.47;;
31002;SDS011;23051;-6.372;106.786;2022-07-29T12:59:44;3.70;;;2.17;;
31002;SDS011;23051;-6.372;106.786;2022-07-29T13:01:46;3.47;;;3.17;;
31002;SDS011;23051;-6.372;106.786;2022-07-29T13:03:52;7.03;;;3.92;;
31002;SDS011;23051;-6.372;106.786;2022-07-29T13:05:54;3.70;;;3.38;;
31002;SDS011;23051;-6.372;106.786;2022-07-29T13:08:00;3.15;;;2.92;;
31002;SDS011;23051;-6.372;106.786;2022-07-29T13:12:14;11.98;;;5.57;;
31002;SDS011;23051;-6.372;106.786;2022-07-29T13:16:20;4.30;;;3.90;;
31002;SDS011;23051;-6.372;106.786;2022-07-29T13:20:28;5.97;;;4.38;;
31002;SDS011;23051;-6.372;106.786;2022-07-29T13:26:41;5.25;;;3.08;;
31002;SDS011;23051;-6.372;106.786;2022-07-29T13:28:47;7.75;;;4.57;;
31002;SDS011;23051;-6.372;106.786;2022-07-29T13:30:52;5.40;;;4.97;;
31002;SDS011;23051;-6.372;106.786;2022-07-29T13:32:57;4.28;;;2.75;;
31002;SDS011;23051;-6.372;106.786;2022-07-29T13:35:01;30.38;;;12.93;;
31002;SDS011;23051;-6.372;106.786;2022-07-29T13:37:04;23.17;;;10.93;;
31002;SDS011;23051;-6.372;106.786;2022-07-29T13:39:05;34.08;;;13.00;;
31002;SDS011;23051;-6.372;106.786;2022-07-29T13:41:07;37.05;;;11.82;;
31002;SDS011;23051;-6.372;106.786;2022-07-29T13:43:09;11.30;;;9.10;;
31002;SDS011;23051;-6.372;106.786;2022-07-29T13:45:11;28.90;;;12.30;;